sensor_id;sensor_type;location;lat;lon;timestamp;P1;durP1;ratioP1;P2;durP2;ratioP2
18224;SDS011;9237;48.590;8.854;2024-03-02T00:00:49;1.00;;;1.00;;
18224;SDS011;9237;48.590;8.854;2024-03-02T00:03:17;1.00;;;1.00;;
18224;SDS011;9237;48.590;8.854;2024-03-02T00:05:46;1.00;;;1.00;;
18224;SDS011;9237;48.590;8.854;2024-03-02T00:08:17;1.00;;;1.00;;
18224;SDS011;9237;48.590;8.854;2024-03-02T00:10:48;1.00;;;1.00;;
18224;SDS011;9237;48.590;8.854;2024-03-02T00:13:15;0.90;;;0.90;;
18224;SDS011;9237;48.590;8.854;2024-03-02T00:15:46;0.97;;;0.97;;
18224;SDS011;9237;48.590;8.854;2024-03-02T00:18:16;0.97;;;0.97;;
18224;SDS011;9237;48.590;8.854;2024-03-02T00:20:46;0.93;;;0.93;;
18224;SDS011;9237;48.590;8.854;2024-03-02T00:23:14;1.00;;;1.00;;
18224;SDS011;9237;48.590;8.854;2024-03-02T00:25:43;0.90;;;0.90;;
18224;SDS011;9237;48.590;8.854;2024-03-02T00:28:11;1.00;;;1.00;;
18224;SDS011;9237;48.590;8.854;2024-03-02T00:30:55;0.90;;;0.90;;
18224;SDS011;9237;48.590;8.854;2024-03-02T00:33:25;0.90;;;0.90;;
18224;SDS011;9237;48.590;8.854;2024-03-02T00:35:55;1.00;;;1.00;;
18224;SDS011;9237;48.590;8.854;2024-03-02T00:38:22;0.90;;;0.90;;
18224;SDS011;9237;48.590;8.854;2024-03-02T00:40:49;0.80;;;0.80;;
18224;SDS011;9237;48.590;8.854;2024-03-02T00:46:10;1.00;;;1.00;;
18224;SDS011;9237;48.590;8.854;2024-03-02T00:48:38;1.00;;;1.00;;
18224;SDS011;9237;48.590;8.854;2024-03-02T00:51:09;0.80;;;0.80;;
18224;SDS011;9237;48.590;8.854;2024-03-02T00:53:36;1.00;;;1.00;;
18224;SDS011;9237;48.590;8.854;2024-03-02T00:56:03;0.93;;;0.93;;
18224;SDS011;9237;48.590;8.854;2024-03-02T00:58:35;1.10;;;1.10;;
18224;SDS011;9237;48.590;8.854;2024-03-02T01:01:02;0.80;;;0.80;;
18224;SDS011;9237;48.590;8.854;2024-03-02T01:03:29;1.00;;;1.00;;
18224;SDS011;9237;48.590;8.854;2024-03-02T01:05:57;1.00;;;1.00;;
18224;SDS011;9237;48.590;8.854;2024-03-02T01:08:25;0.90;;;0.90;;
18224;SDS011;9237;48.590;8.854;2024-03-02T01:10:52;1.00;;;1.00;;
18224;SDS011;9237;48.590;8.854;2024-03-02T01:13:19;0.80;;;0.80;;
18224;SDS011;9237;48.590;8.854;2024-03-02T01:15:47;0.97;;;0.97;;
18224;SDS011;9237;48.590;8.854;2024-03-02T01:18:14;1.00;;;1.00;;
18224;SDS011;9237;48.590;8.854;2024-03-02T01:20:41;0.90;;;0.90;;
18224;SDS011;9237;48.590;8.854;2024-03-02T01:23:07;1.00;;;1.00;;
18224;SDS011;9237;48.590;8.854;2024-03-02T01:25:36;0.97;;;0.97;;
18224;SDS011;9237;48.590;8.854;2024-03-02T01:28:03;0.90;;;0.90;;
18224;SDS011;9237;48.590;8.854;2024-03-02T01:30:30;0.90;;;0.90;;
18224;SDS011;9237;48.590;8.854;2024-03-02T01:32:57;1.00;;;1.00;;
18224;SDS011;9237;48.590;8.854;2024-03-02T01:35:24;0.90;;;0.90;;
18224;SDS011;9237;48.590;8.854;2024-03-02T01:37:51;0.90;;;0.90;;
18224;SDS011;9237;48.590;8.854;2024-03-02T01:40:18;1.00;;;1.00;;
18224;SDS011;9237;48.590;8.854;2024-03-02T01:42:46;0.90;;;0.90;;
18224;SDS011;9237;48.590;8.854;2024-03-02T01:45:13;0.90;;;0.90;;
18224;SDS011;9237;48.590;8.854;2024-03-02T01:47:40;1.00;;;1.00;;
18224;SDS011;9237;48.590;8.854;2024-03-02T01:50:07;1.00;;;1.00;;
18224;SDS011;9237;48.590;8.854;2024-03-02T01:52:36;0.90;;;0.90;;
18224;SDS011;9237;48.590;8.854;2024-03-02T01:55:03;0.90;;;0.90;;
18224;SDS011;9237;48.590;8.854;2024-03-02T01:57:31;1.00;;;1.00;;
18224;SDS011;9237;48.590;8.854;2024-03-02T01:59:59;1.10;;;1.10;;
18224;SDS011;9237;48.590;8.854;2024-03-02T02:02:26;0.97;;;0.97;;
18224;SDS011;9237;48.590;8.854;2024-03-02T02:04:53;0.93;;;0.93;;
18224;SDS011;9237;48.590;8.854;2024-03-02T02:07:20;1.00;;;1.00;;
18224;SDS011;9237;48.590;8.854;2024-03-02T02:09:47;1.00;;;1.00;;
18224;SDS011;9237;48.590;8.854;2024-03-02T02:12:14;1.00;;;1.00;;
18224;SDS011;9237;48.590;8.854;2024-03-02T02:14:46;1.00;;;1.00;;
18224;SDS011;9237;48.590;8.854;2024-03-02T02:17:16;1.00;;;1.00;;
18224;SDS011;9237;48.590;8.854;2024-03-02T02:19:43;1.00;;;1.00;;
18224;SDS011;9237;48.590;8.854;2024-03-02T02:22:11;0.90;;;0.90;;
18224;SDS011;9237;48.590;8.854;2024-03-02T02:24:39;0.93;;;0.93;;
18224;SDS011;9237;48.590;8.854;2024-03-02T02:27:07;1.10;;;1.10;;
18224;SDS011;9237;48.590;8.854;2024-03-02T02:29:34;1.10;;;1.10;;
18224;SDS011;9237;48.590;8.854;2024-03-02T02:32:00;0.90;;;0.90;;
18224;SDS011;9237;48.590;8.854;2024-03-02T02:34:27;1.00;;;1.00;;
18224;SDS011;9237;48.590;8.854;2024-03-02T02:36:54;1.00;;;1.00;;
18224;SDS011;9237;48.590;8.854;2024-03-02T02:39:23;0.97;;;0.97;;
18224;SDS011;9237;48.590;8.854;2024-03-02T02:41:49;1.00;;;1.00;;
18224;SDS011;9237;48.590;8.854;2024-03-02T02:44:16;0.93;;;0.93;;
18224;SDS011;9237;48.590;8.854;2024-03-02T02:46:43;1.10;;;1.10;;
18224;SDS011;9237;48.590;8.854;2024-03-02T02:49:10;1.00;;;1.00;;
18224;SDS011;9237;48.590;8.854;2024-03-02T02:51:36;1.00;;;1.00;;
18224;SDS011;9237;48.590;8.854;2024-03-02T02:54:03;1.00;;;1.00;;
18224;SDS011;9237;48.590;8.854;2024-03-02T02:56:31;0.90;;;0.90;;
18224;SDS011;9237;48.590;8.854;2024-03-02T02:58:58;0.90;;;0.90;;
18224;SDS011;9237;48.590;8.854;2024-03-02T03:01:25;1.00;;;1.00;;
18224;SDS011;9237;48.590;8.854;2024-03-02T03:03:52;0.90;;;0.90;;
18224;SDS011;9237;48.590;8.854;2024-03-02T03:06:18;1.00;;;1.00;;
18224;SDS011;9237;48.590;8.854;2024-03-02T03:08:45;1.07;;;1.07;;
18224;SDS011;9237;48.590;8.854;2024-03-02T03:11:12;0.90;;;0.90;;
18224;SDS011;9237;48.590;8.854;2024-03-02T03:13:40;1.10;;;1.10;;
18224;SDS011;9237;48.590;8.854;2024-03-02T03:16:07;1.00;;;1.00;;
18224;SDS011;9237;48.590;8.854;2024-03-02T03:18:34;1.00;;;1.00;;
18224;SDS011;9237;48.590;8.854;2024-03-02T03:21:01;1.00;;;1.00;;
18224;SDS011;9237;48.590;8.854;2024-03-02T03:23:28;1.00;;;1.00;;
18224;SDS011;9237;48.590;8.854;2024-03-02T03:25:55;0.90;;;0.90;;
18224;SDS011;9237;48.590;8.854;2024-03-02T03:28:21;1.03;;;1.03;;
18224;SDS011;9237;48.590;8.854;2024-03-02T03:30:49;1.00;;;1.00;;
18224;SDS011;9237;48.590;8.854;2024-03-02T03:33:16;1.00;;;1.00;;
18224;SDS011;9237;48.590;8.854;2024-03-02T03:35:43;1.10;;;1.10;;
18224;SDS011;9237;48.590;8.854;2024-03-02T03:38:11;0.90;;;0.90;;
18224;SDS011;9237;48.590;8.854;2024-03-02T03:40:38;1.00;;;1.00;;
18224;SDS011;9237;48.590;8.854;2024-03-02T03:43:04;1.03;;;1.03;;
18224;SDS011;9237;48.590;8.854;2024-03-02T03:45:31;1.00;;;1.00;;
18224;SDS011;9237;48.590;8.854;2024-03-02T03:47:59;1.00;;;1.00;;
18224;SDS011;9237;48.590;8.854;2024-03-02T03:50:26;0.90;;;0.90;;
18224;SDS011;9237;48.590;8.854;2024-03-02T03:52:53;1.00;;;1.00;;
18224;SDS011;9237;48.590;8.854;2024-03-02T03:55:19;1.00;;;1.00;;
18224;SDS011;9237;48.590;8.854;2024-03-02T03:57:46;1.00;;;1.00;;
18224;SDS011;9237;48.590;8.854;2024-03-02T04:00:13;1.00;;;1.00;;
18224;SDS011;9237;48.590;8.854;2024-03-02T04:02:41;0.90;;;0.90;;
18224;SDS011;9237;48.590;8.854;2024-03-02T04:05:09;0.90;;;0.90;;
18224;SDS011;9237;48.590;8.854;2024-03-02T04:07:36;0.90;;;0.90;;
18224;SDS011;9237;48.590;8.854;2024-03-02T04:10:06;1.00;;;1.00;;
18224;SDS011;9237;48.590;8.854;2024-03-02T04:12:34;1.00;;;1.00;;
18224;SDS011;9237;48.590;8.854;2024-03-02T04:15:01;1.00;;;1.00;;
18224;SDS011;9237;48.590;8.854;2024-03-02T04:17:29;0.90;;;0.90;;
18224;SDS011;9237;48.590;8.854;2024-03-02T04:19:58;1.00;;;1.00;;
18224;SDS011;9237;48.590;8.854;2024-03-02T04:22:27;1.00;;;1.00;;
18224;SDS011;9237;48.590;8.854;2024-03-02T04:24:53;0.80;;;0.80;;
18224;SDS011;9237;48.590;8.854;2024-03-02T04:27:20;1.00;;;1.00;;
18224;SDS011;9237;48.590;8.854;2024-03-02T04:29:47;1.00;;;1.00;;
18224;SDS011;9237;48.590;8.854;2024-03-02T04:32:14;1.00;;;1.00;;
18224;SDS011;9237;48.590;8.854;2024-03-02T04:34:41;1.00;;;1.00;;
18224;SDS011;9237;48.590;8.854;2024-03-02T04:37:08;0.90;;;0.90;;
18224;SDS011;9237;48.590;8.854;2024-03-02T04:39:39;1.10;;;1.10;;
18224;SDS011;9237;48.590;8.854;2024-03-02T04:42:05;0.87;;;0.87;;
18224;SDS011;9237;48.590;8.854;2024-03-02T04:44:32;0.97;;;0.97;;
18224;SDS011;9237;48.590;8.854;2024-03-02T04:46:59;1.00;;;1.00;;
18224;SDS011;9237;48.590;8.854;2024-03-02T04:49:26;1.00;;;1.00;;
18224;SDS011;9237;48.590;8.854;2024-03-02T04:51:52;0.90;;;0.90;;
18224;SDS011;9237;48.590;8.854;2024-03-02T04:54:19;0.90;;;0.90;;
18224;SDS011;9237;48.590;8.854;2024-03-02T04:56:47;1.03;;;1.03;;
18224;SDS011;9237;48.590;8.854;2024-03-02T04:59:15;1.00;;;1.00;;
18224;SDS011;9237;48.590;8.854;2024-03-02T05:01:43;1.00;;;1.00;;
18224;SDS011;9237;48.590;8.854;2024-03-02T05:04:10;1.00;;;1.00;;
18224;SDS011;9237;48.590;8.854;2024-03-02T05:06:37;1.00;;;1.00;;
18224;SDS011;9237;48.590;8.854;2024-03-02T05:09:05;1.00;;;1.00;;
18224;SDS011;9237;48.590;8.854;2024-03-02T05:11:32;1.10;;;1.10;;
18224;SDS011;9237;48.590;8.854;2024-03-02T05:14:25;1.00;;;1.00;;
18224;SDS011;9237;48.590;8.854;2024-03-02T05:16:51;0.87;;;0.87;;
18224;SDS011;9237;48.590;8.854;2024-03-02T05:19:18;0.90;;;0.90;;
18224;SDS011;9237;48.590;8.854;2024-03-02T05:21:44;0.93;;;0.93;;
18224;SDS011;9237;48.590;8.854;2024-03-02T05:24:11;1.10;;;1.10;;
18224;SDS011;9237;48.590;8.854;2024-03-02T05:26:38;1.00;;;1.00;;
18224;SDS011;9237;48.590;8.854;2024-03-02T05:29:05;1.07;;;1.07;;
18224;SDS011;9237;48.590;8.854;2024-03-02T05:31:33;0.97;;;0.97;;
18224;SDS011;9237;48.590;8.854;2024-03-02T05:34:00;0.80;;;0.80;;
18224;SDS011;9237;48.590;8.854;2024-03-02T05:36:27;1.00;;;1.00;;
18224;SDS011;9237;48.590;8.854;2024-03-02T05:38:55;1.00;;;1.00;;
18224;SDS011;9237;48.590;8.854;2024-03-02T05:41:22;1.03;;;1.03;;
18224;SDS011;9237;48.590;8.854;2024-03-02T05:43:49;0.90;;;0.90;;
18224;SDS011;9237;48.590;8.854;2024-03-02T05:46:15;1.00;;;1.00;;
18224;SDS011;9237;48.590;8.854;2024-03-02T05:48:43;1.00;;;1.00;;
18224;SDS011;9237;48.590;8.854;2024-03-02T05:51:10;1.00;;;1.00;;
18224;SDS011;9237;48.590;8.854;2024-03-02T05:53:37;1.00;;;1.00;;
18224;SDS011;9237;48.590;8.854;2024-03-02T05:56:04;1.10;;;1.10;;
18224;SDS011;9237;48.590;8.854;2024-03-02T05:58:31;1.00;;;1.00;;
18224;SDS011;9237;48.590;8.854;2024-03-02T06:01:11;0.90;;;0.90;;
18224;SDS011;9237;48.590;8.854;2024-03-02T06:03:38;0.90;;;0.90;;
18224;SDS011;9237;48.590;8.854;2024-03-02T06:06:06;0.83;;;0.83;;
18224;SDS011;9237;48.590;8.854;2024-03-02T06:08:33;1.10;;;1.10;;
18224;SDS011;9237;48.590;8.854;2024-03-02T06:11:00;1.10;;;1.10;;
18224;SDS011;9237;48.590;8.854;2024-03-02T06:13:27;1.00;;;1.00;;
18224;SDS011;9237;48.590;8.854;2024-03-02T06:15:53;1.00;;;1.00;;
18224;SDS011;9237;48.590;8.854;2024-03-02T06:18:20;1.10;;;1.10;;
18224;SDS011;9237;48.590;8.854;2024-03-02T06:20:47;0.90;;;0.90;;
18224;SDS011;9237;48.590;8.854;2024-03-02T06:23:15;0.90;;;0.90;;
18224;SDS011;9237;48.590;8.854;2024-03-02T06:25:42;1.00;;;1.00;;
18224;SDS011;9237;48.590;8.854;2024-03-02T06:28:09;1.00;;;1.00;;
18224;SDS011;9237;48.590;8.854;2024-03-02T06:30:35;0.90;;;0.90;;
18224;SDS011;9237;48.590;8.854;2024-03-02T06:33:02;1.00;;;1.00;;
18224;SDS011;9237;48.590;8.854;2024-03-02T06:35:31;1.00;;;1.00;;
18224;SDS011;9237;48.590;8.854;2024-03-02T06:37:58;0.90;;;0.90;;
18224;SDS011;9237;48.590;8.854;2024-03-02T06:40:26;0.90;;;0.90;;
18224;SDS011;9237;48.590;8.854;2024-03-02T06:42:53;1.00;;;1.00;;
18224;SDS011;9237;48.590;8.854;2024-03-02T06:45:20;1.00;;;1.00;;
18224;SDS011;9237;48.590;8.854;2024-03-02T06:47:47;1.00;;;1.00;;
18224;SDS011;9237;48.590;8.854;2024-03-02T06:50:13;0.90;;;0.90;;
18224;SDS011;9237;48.590;8.854;2024-03-02T06:52:40;1.00;;;1.00;;
18224;SDS011;9237;48.590;8.854;2024-03-02T06:55:08;0.90;;;0.90;;
18224;SDS011;9237;48.590;8.854;2024-03-02T06:57:37;1.10;;;1.10;;
18224;SDS011;9237;48.590;8.854;2024-03-02T07:00:04;1.00;;;1.00;;
18224;SDS011;9237;48.590;8.854;2024-03-02T07:02:33;1.00;;;1.00;;
18224;SDS011;9237;48.590;8.854;2024-03-02T07:05:01;1.03;;;1.03;;
18224;SDS011;9237;48.590;8.854;2024-03-02T07:07:27;0.90;;;0.90;;
18224;SDS011;9237;48.590;8.854;2024-03-02T07:09:54;1.00;;;1.00;;
18224;SDS011;9237;48.590;8.854;2024-03-02T07:12:21;1.00;;;1.00;;
18224;SDS011;9237;48.590;8.854;2024-03-02T07:14:49;1.00;;;1.00;;
18224;SDS011;9237;48.590;8.854;2024-03-02T07:17:49;0.90;;;0.90;;
18224;SDS011;9237;48.590;8.854;2024-03-02T07:20:16;1.00;;;1.00;;
18224;SDS011;9237;48.590;8.854;2024-03-02T07:22:43;1.00;;;1.00;;
18224;SDS011;9237;48.590;8.854;2024-03-02T07:25:10;0.90;;;0.90;;
18224;SDS011;9237;48.590;8.854;2024-03-02T07:27:37;1.00;;;1.00;;
18224;SDS011;9237;48.590;8.854;2024-03-02T07:30:05;1.00;;;1.00;;
18224;SDS011;9237;48.590;8.854;2024-03-02T07:32:33;0.90;;;0.90;;
18224;SDS011;9237;48.590;8.854;2024-03-02T07:34:59;0.90;;;0.90;;
18224;SDS011;9237;48.590;8.854;2024-03-02T07:37:28;0.90;;;0.90;;
18224;SDS011;9237;48.590;8.854;2024-03-02T07:39:55;0.90;;;0.90;;
18224;SDS011;9237;48.590;8.854;2024-03-02T07:42:22;0.90;;;0.90;;
18224;SDS011;9237;48.590;8.854;2024-03-02T07:44:49;0.90;;;0.90;;
18224;SDS011;9237;48.590;8.854;2024-03-02T07:47:17;0.90;;;0.90;;
18224;SDS011;9237;48.590;8.854;2024-03-02T07:49:44;1.00;;;1.00;;
18224;SDS011;9237;48.590;8.854;2024-03-02T07:52:11;0.90;;;0.90;;
18224;SDS011;9237;48.590;8.854;2024-03-02T07:54:38;0.90;;;0.90;;
18224;SDS011;9237;48.590;8.854;2024-03-02T07:57:04;0.77;;;0.77;;
18224;SDS011;9237;48.590;8.854;2024-03-02T07:59:31;0.90;;;0.90;;
18224;SDS011;9237;48.590;8.854;2024-03-02T08:01:58;0.73;;;0.73;;
18224;SDS011;9237;48.590;8.854;2024-03-02T08:04:27;0.80;;;0.80;;
18224;SDS011;9237;48.590;8.854;2024-03-02T08:06:54;0.70;;;0.70;;
18224;SDS011;9237;48.590;8.854;2024-03-02T08:09:21;0.80;;;0.80;;
18224;SDS011;9237;48.590;8.854;2024-03-02T08:11:47;0.60;;;0.60;;
18224;SDS011;9237;48.590;8.854;2024-03-02T08:14:14;0.70;;;0.70;;
18224;SDS011;9237;48.590;8.854;2024-03-02T08:16:41;0.90;;;0.90;;
18224;SDS011;9237;48.590;8.854;2024-03-02T08:19:08;0.80;;;0.80;;
18224;SDS011;9237;48.590;8.854;2024-03-02T08:21:36;0.80;;;0.80;;
18224;SDS011;9237;48.590;8.854;2024-03-02T08:24:03;0.80;;;0.80;;
18224;SDS011;9237;48.590;8.854;2024-03-02T08:26:30;0.83;;;0.83;;
18224;SDS011;9237;48.590;8.854;2024-03-02T08:28:57;0.70;;;0.70;;
18224;SDS011;9237;48.590;8.854;2024-03-02T08:31:26;0.80;;;0.80;;
18224;SDS011;9237;48.590;8.854;2024-03-02T08:33:53;0.70;;;0.70;;
18224;SDS011;9237;48.590;8.854;2024-03-02T08:36:20;0.70;;;0.70;;
18224;SDS011;9237;48.590;8.854;2024-03-02T08:38:49;0.60;;;0.60;;
18224;SDS011;9237;48.590;8.854;2024-03-02T08:41:16;0.80;;;0.80;;
18224;SDS011;9237;48.590;8.854;2024-03-02T08:43:43;0.80;;;0.80;;
18224;SDS011;9237;48.590;8.854;2024-03-02T08:46:10;0.73;;;0.73;;
18224;SDS011;9237;48.590;8.854;2024-03-02T08:48:38;0.80;;;0.80;;
18224;SDS011;9237;48.590;8.854;2024-03-02T08:51:06;0.80;;;0.80;;
18224;SDS011;9237;48.590;8.854;2024-03-02T08:53:35;0.70;;;0.70;;
18224;SDS011;9237;48.590;8.854;2024-03-02T08:56:04;0.80;;;0.80;;
18224;SDS011;9237;48.590;8.854;2024-03-02T08:58:31;0.70;;;0.70;;
18224;SDS011;9237;48.590;8.854;2024-03-02T09:00:58;0.80;;;0.80;;
18224;SDS011;9237;48.590;8.854;2024-03-02T09:03:25;0.70;;;0.70;;
18224;SDS011;9237;48.590;8.854;2024-03-02T09:05:52;0.70;;;0.70;;
18224;SDS011;9237;48.590;8.854;2024-03-02T09:08:18;0.70;;;0.70;;
18224;SDS011;9237;48.590;8.854;2024-03-02T09:10:45;0.70;;;0.70;;
18224;SDS011;9237;48.590;8.854;2024-03-02T09:13:13;0.70;;;0.70;;
18224;SDS011;9237;48.590;8.854;2024-03-02T09:15:40;0.70;;;0.70;;
18224;SDS011;9237;48.590;8.854;2024-03-02T09:18:08;0.70;;;0.70;;
18224;SDS011;9237;48.590;8.854;2024-03-02T09:20:34;0.70;;;0.70;;
18224;SDS011;9237;48.590;8.854;2024-03-02T09:23:01;0.70;;;0.70;;
18224;SDS011;9237;48.590;8.854;2024-03-02T09:25:28;0.70;;;0.70;;
18224;SDS011;9237;48.590;8.854;2024-03-02T09:27:55;0.70;;;0.70;;
18224;SDS011;9237;48.590;8.854;2024-03-02T09:30:23;0.70;;;0.70;;
18224;SDS011;9237;48.590;8.854;2024-03-02T09:32:50;0.70;;;0.70;;
18224;SDS011;9237;48.590;8.854;2024-03-02T09:35:16;0.70;;;0.70;;
18224;SDS011;9237;48.590;8.854;2024-03-02T09:37:43;0.70;;;0.70;;
18224;SDS011;9237;48.590;8.854;2024-03-02T09:40:10;0.80;;;0.80;;
18224;SDS011;9237;48.590;8.854;2024-03-02T09:42:37;0.80;;;0.80;;
18224;SDS011;9237;48.590;8.854;2024-03-02T09:45:05;0.70;;;0.70;;
18224;SDS011;9237;48.590;8.854;2024-03-02T09:47:34;0.80;;;0.80;;
18224;SDS011;9237;48.590;8.854;2024-03-02T09:50:00;0.75;;;0.75;;
18224;SDS011;9237;48.590;8.854;2024-03-02T09:52:28;0.70;;;0.70;;
18224;SDS011;9237;48.590;8.854;2024-03-02T09:54:56;0.70;;;0.70;;
18224;SDS011;9237;48.590;8.854;2024-03-02T09:57:23;0.80;;;0.80;;
18224;SDS011;9237;48.590;8.854;2024-03-02T09:59:50;0.70;;;0.70;;
18224;SDS011;9237;48.590;8.854;2024-03-02T10:02:17;0.70;;;0.70;;
18224;SDS011;9237;48.590;8.854;2024-03-02T10:04:45;0.70;;;0.70;;
18224;SDS011;9237;48.590;8.854;2024-03-02T10:07:15;0.70;;;0.70;;
18224;SDS011;9237;48.590;8.854;2024-03-02T10:09:43;0.70;;;0.70;;
18224;SDS011;9237;48.590;8.854;2024-03-02T10:12:11;0.70;;;0.70;;
18224;SDS011;9237;48.590;8.854;2024-03-02T10:14:39;0.70;;;0.70;;
18224;SDS011;9237;48.590;8.854;2024-03-02T10:17:07;0.70;;;0.70;;
18224;SDS011;9237;48.590;8.854;2024-03-02T10:19:34;0.70;;;0.70;;
18224;SDS011;9237;48.590;8.854;2024-03-02T10:22:04;0.80;;;0.80;;
18224;SDS011;9237;48.590;8.854;2024-03-02T10:24:35;0.70;;;0.70;;
18224;SDS011;9237;48.590;8.854;2024-03-02T10:27:06;0.70;;;0.70;;
18224;SDS011;9237;48.590;8.854;2024-03-02T10:29:36;0.70;;;0.70;;
18224;SDS011;9237;48.590;8.854;2024-03-02T10:32:08;0.80;;;0.80;;
18224;SDS011;9237;48.590;8.854;2024-03-02T10:34:36;0.60;;;0.60;;
18224;SDS011;9237;48.590;8.854;2024-03-02T10:37:04;0.70;;;0.70;;
18224;SDS011;9237;48.590;8.854;2024-03-02T10:39:32;0.70;;;0.70;;
18224;SDS011;9237;48.590;8.854;2024-03-02T10:42:00;0.80;;;0.80;;
18224;SDS011;9237;48.590;8.854;2024-03-02T10:44:29;0.70;;;0.70;;
18224;SDS011;9237;48.590;8.854;2024-03-02T10:46:56;0.73;;;0.73;;
18224;SDS011;9237;48.590;8.854;2024-03-02T10:49:28;0.70;;;0.70;;
18224;SDS011;9237;48.590;8.854;2024-03-02T10:51:56;0.70;;;0.70;;
18224;SDS011;9237;48.590;8.854;2024-03-02T10:54:24;0.80;;;0.80;;
18224;SDS011;9237;48.590;8.854;2024-03-02T10:56:54;0.80;;;0.80;;
18224;SDS011;9237;48.590;8.854;2024-03-02T10:59:26;0.70;;;0.70;;
18224;SDS011;9237;48.590;8.854;2024-03-02T11:01:56;0.60;;;0.60;;
18224;SDS011;9237;48.590;8.854;2024-03-02T11:04:24;0.80;;;0.80;;
18224;SDS011;9237;48.590;8.854;2024-03-02T11:06:52;0.80;;;0.80;;
18224;SDS011;9237;48.590;8.854;2024-03-02T11:09:26;0.70;;;0.70;;
18224;SDS011;9237;48.590;8.854;2024-03-02T11:11:56;0.80;;;0.80;;
18224;SDS011;9237;48.590;8.854;2024-03-02T11:14:29;0.70;;;0.70;;
18224;SDS011;9237;48.590;8.854;2024-03-02T11:16:57;0.70;;;0.70;;
18224;SDS011;9237;48.590;8.854;2024-03-02T11:19:26;0.80;;;0.80;;
18224;SDS011;9237;48.590;8.854;2024-03-02T11:21:54;0.80;;;0.80;;
18224;SDS011;9237;48.590;8.854;2024-03-02T11:24:31;0.70;;;0.70;;
18224;SDS011;9237;48.590;8.854;2024-03-02T11:26:59;0.80;;;0.80;;
18224;SDS011;9237;48.590;8.854;2024-03-02T11:29:44;0.80;;;0.80;;
18224;SDS011;9237;48.590;8.854;2024-03-02T11:32:20;0.70;;;0.70;;
18224;SDS011;9237;48.590;8.854;2024-03-02T11:34:48;0.77;;;0.77;;
18224;SDS011;9237;48.590;8.854;2024-03-02T11:37:17;0.70;;;0.70;;
18224;SDS011;9237;48.590;8.854;2024-03-02T11:39:46;0.67;;;0.67;;
18224;SDS011;9237;48.590;8.854;2024-03-02T11:42:16;0.70;;;0.70;;
18224;SDS011;9237;48.590;8.854;2024-03-02T11:44:44;0.70;;;0.70;;
18224;SDS011;9237;48.590;8.854;2024-03-02T11:47:12;0.60;;;0.60;;
18224;SDS011;9237;48.590;8.854;2024-03-02T11:49:41;0.60;;;0.60;;
18224;SDS011;9237;48.590;8.854;2024-03-02T11:52:10;0.60;;;0.60;;
18224;SDS011;9237;48.590;8.854;2024-03-02T11:54:38;0.60;;;0.60;;
18224;SDS011;9237;48.590;8.854;2024-03-02T11:57:13;0.70;;;0.70;;
18224;SDS011;9237;48.590;8.854;2024-03-02T11:59:40;0.60;;;0.60;;
18224;SDS011;9237;48.590;8.854;2024-03-02T12:02:13;0.70;;;0.70;;
18224;SDS011;9237;48.590;8.854;2024-03-02T12:04:42;0.60;;;0.60;;
18224;SDS011;9237;48.590;8.854;2024-03-02T12:07:10;0.60;;;0.60;;
18224;SDS011;9237;48.590;8.854;2024-03-02T12:09:37;0.60;;;0.60;;
18224;SDS011;9237;48.590;8.854;2024-03-02T12:12:04;0.70;;;0.70;;
18224;SDS011;9237;48.590;8.854;2024-03-02T12:14:33;0.70;;;0.70;;
18224;SDS011;9237;48.590;8.854;2024-03-02T12:17:01;0.80;;;0.80;;
18224;SDS011;9237;48.590;8.854;2024-03-02T12:19:29;0.60;;;0.60;;
18224;SDS011;9237;48.590;8.854;2024-03-02T12:21:56;0.63;;;0.63;;
18224;SDS011;9237;48.590;8.854;2024-03-02T12:24:24;0.53;;;0.53;;
18224;SDS011;9237;48.590;8.854;2024-03-02T12:26:53;0.60;;;0.60;;
18224;SDS011;9237;48.590;8.854;2024-03-02T12:29:20;0.70;;;0.70;;
18224;SDS011;9237;48.590;8.854;2024-03-02T12:31:49;0.80;;;0.80;;
18224;SDS011;9237;48.590;8.854;2024-03-02T12:34:17;0.50;;;0.50;;
18224;SDS011;9237;48.590;8.854;2024-03-02T12:36:45;0.60;;;0.60;;
18224;SDS011;9237;48.590;8.854;2024-03-02T12:39:14;0.70;;;0.70;;
18224;SDS011;9237;48.590;8.854;2024-03-02T12:41:41;0.70;;;0.70;;
18224;SDS011;9237;48.590;8.854;2024-03-02T12:44:08;0.77;;;0.77;;
18224;SDS011;9237;48.590;8.854;2024-03-02T12:46:35;0.60;;;0.60;;
18224;SDS011;9237;48.590;8.854;2024-03-02T12:49:07;0.80;;;0.80;;
18224;SDS011;9237;48.590;8.854;2024-03-02T12:51:36;0.70;;;0.70;;
18224;SDS011;9237;48.590;8.854;2024-03-02T12:54:03;0.70;;;0.70;;
18224;SDS011;9237;48.590;8.854;2024-03-02T12:56:30;0.70;;;0.70;;
18224;SDS011;9237;48.590;8.854;2024-03-02T12:58:58;0.70;;;0.70;;
18224;SDS011;9237;48.590;8.854;2024-03-02T13:01:25;0.70;;;0.70;;
18224;SDS011;9237;48.590;8.854;2024-03-02T13:03:52;0.70;;;0.70;;
18224;SDS011;9237;48.590;8.854;2024-03-02T13:06:21;0.60;;;0.60;;
18224;SDS011;9237;48.590;8.854;2024-03-02T13:08:48;0.70;;;0.70;;
18224;SDS011;9237;48.590;8.854;2024-03-02T13:11:16;0.60;;;0.60;;
18224;SDS011;9237;48.590;8.854;2024-03-02T13:13:43;0.70;;;0.70;;
18224;SDS011;9237;48.590;8.854;2024-03-02T13:16:09;0.60;;;0.60;;
18224;SDS011;9237;48.590;8.854;2024-03-02T13:18:38;0.80;;;0.80;;
18224;SDS011;9237;48.590;8.854;2024-03-02T13:21:05;0.80;;;0.80;;
18224;SDS011;9237;48.590;8.854;2024-03-02T13:23:33;0.70;;;0.70;;
18224;SDS011;9237;48.590;8.854;2024-03-02T13:26:00;0.60;;;0.60;;
18224;SDS011;9237;48.590;8.854;2024-03-02T13:28:27;0.70;;;0.70;;
18224;SDS011;9237;48.590;8.854;2024-03-02T13:30:54;0.70;;;0.70;;
18224;SDS011;9237;48.590;8.854;2024-03-02T13:33:20;0.70;;;0.70;;
18224;SDS011;9237;48.590;8.854;2024-03-02T13:35:48;0.70;;;0.70;;
18224;SDS011;9237;48.590;8.854;2024-03-02T13:38:16;0.70;;;0.70;;
18224;SDS011;9237;48.590;8.854;2024-03-02T13:40:44;0.70;;;0.70;;
18224;SDS011;9237;48.590;8.854;2024-03-02T13:43:11;0.70;;;0.70;;
18224;SDS011;9237;48.590;8.854;2024-03-02T13:45:38;0.70;;;0.70;;
18224;SDS011;9237;48.590;8.854;2024-03-02T13:48:05;0.70;;;0.70;;
18224;SDS011;9237;48.590;8.854;2024-03-02T13:50:32;0.70;;;0.70;;
18224;SDS011;9237;48.590;8.854;2024-03-02T13:52:59;0.70;;;0.70;;
18224;SDS011;9237;48.590;8.854;2024-03-02T13:55:26;0.70;;;0.70;;
18224;SDS011;9237;48.590;8.854;2024-03-02T13:57:54;0.70;;;0.70;;
18224;SDS011;9237;48.590;8.854;2024-03-02T14:00:21;0.70;;;0.70;;
18224;SDS011;9237;48.590;8.854;2024-03-02T14:02:48;0.70;;;0.70;;
18224;SDS011;9237;48.590;8.854;2024-03-02T14:05:16;0.70;;;0.70;;
18224;SDS011;9237;48.590;8.854;2024-03-02T14:07:42;0.60;;;0.60;;
18224;SDS011;9237;48.590;8.854;2024-03-02T14:10:10;0.60;;;0.60;;
18224;SDS011;9237;48.590;8.854;2024-03-02T14:12:36;0.60;;;0.60;;
18224;SDS011;9237;48.590;8.854;2024-03-02T14:15:05;0.50;;;0.50;;
18224;SDS011;9237;48.590;8.854;2024-03-02T14:17:33;0.50;;;0.50;;
18224;SDS011;9237;48.590;8.854;2024-03-02T14:20:00;0.50;;;0.50;;
18224;SDS011;9237;48.590;8.854;2024-03-02T14:22:27;0.50;;;0.50;;
18224;SDS011;9237;48.590;8.854;2024-03-02T14:24:53;0.60;;;0.60;;
18224;SDS011;9237;48.590;8.854;2024-03-02T14:27:20;0.60;;;0.60;;
18224;SDS011;9237;48.590;8.854;2024-03-02T14:29:47;0.60;;;0.60;;
18224;SDS011;9237;48.590;8.854;2024-03-02T14:32:15;0.60;;;0.60;;
18224;SDS011;9237;48.590;8.854;2024-03-02T14:34:42;0.60;;;0.60;;
18224;SDS011;9237;48.590;8.854;2024-03-02T14:37:11;0.60;;;0.60;;
18224;SDS011;9237;48.590;8.854;2024-03-02T14:39:38;0.50;;;0.50;;
18224;SDS011;9237;48.590;8.854;2024-03-02T14:42:05;0.50;;;0.50;;
18224;SDS011;9237;48.590;8.854;2024-03-02T14:44:32;0.60;;;0.60;;
18224;SDS011;9237;48.590;8.854;2024-03-02T14:47:00;0.60;;;0.60;;
18224;SDS011;9237;48.590;8.854;2024-03-02T14:49:30;0.70;;;0.70;;
18224;SDS011;9237;48.590;8.854;2024-03-02T14:51:58;0.60;;;0.60;;
18224;SDS011;9237;48.590;8.854;2024-03-02T14:54:25;0.70;;;0.70;;
18224;SDS011;9237;48.590;8.854;2024-03-02T14:56:52;0.70;;;0.70;;
18224;SDS011;9237;48.590;8.854;2024-03-02T14:59:19;0.70;;;0.70;;
18224;SDS011;9237;48.590;8.854;2024-03-02T15:01:45;0.70;;;0.70;;
18224;SDS011;9237;48.590;8.854;2024-03-02T15:04:13;0.70;;;0.70;;
18224;SDS011;9237;48.590;8.854;2024-03-02T15:06:42;0.80;;;0.80;;